createdAt,value
2017-08-19T00:01:24.829Z,96.70
2017-08-19T00:03:52.451Z,96.30
2017-08-19T00:06:19.965Z,96.60
2017-08-19T00:08:47.518Z,96.50
2017-08-19T00:11:15.110Z,96.30
2017-08-19T00:13:42.632Z,96.50
2017-08-19T00:16:10.193Z,96.20
2017-08-19T00:18:37.793Z,96.70
2017-08-19T00:21:05.325Z,96.70
2017-08-19T00:23:32.922Z,96.70
2017-08-19T00:26:01.266Z,96.70
2017-08-19T00:28:28.776Z,96.60
2017-08-19T00:30:56.542Z,96.70
2017-08-19T00:33:24.110Z,96.70
2017-08-19T00:35:51.648Z,96.90
2017-08-19T00:38:19.185Z,97.00
2017-08-19T00:40:46.746Z,96.80
2017-08-19T00:43:14.285Z,96.00
2017-08-19T00:45:41.828Z,95.90
2017-08-19T00:48:09.432Z,95.90
2017-08-19T00:50:36.971Z,95.90
2017-08-19T00:53:04.618Z,96.20
2017-08-19T00:55:32.233Z,96.60
2017-08-19T00:57:59.779Z,96.10
2017-08-19T01:00:27.296Z,96.50
2017-08-19T01:02:54.892Z,96.50
2017-08-19T01:05:23.555Z,96.40
2017-08-19T01:07:51.137Z,96.30
2017-08-19T01:10:18.712Z,96.20
2017-08-19T01:12:46.314Z,96.00
2017-08-19T01:15:14.665Z,95.60
2017-08-19T01:17:42.262Z,95.40
2017-08-19T01:20:09.802Z,95.30
2017-08-19T01:22:37.294Z,95.10
2017-08-19T01:25:16.749Z,95.10
2017-08-19T01:27:44.293Z,94.80
2017-08-19T01:30:11.836Z,94.50
2017-08-19T01:32:39.369Z,94.90
2017-08-19T01:35:06.896Z,94.50
2017-08-19T01:37:34.462Z,94.90
2017-08-19T01:40:02.343Z,94.40
2017-08-19T01:42:29.933Z,94.50
2017-08-19T01:44:58.154Z,94.60
2017-08-19T01:47:25.739Z,94.70
2017-08-19T01:49:53.294Z,94.30
2017-08-19T01:52:20.893Z,94.70
2017-08-19T01:54:48.516Z,94.90
2017-08-19T01:57:16.044Z,95.10
2017-08-19T01:59:43.617Z,95.10
2017-08-19T02:02:11.205Z,95.40
2017-08-19T02:04:38.781Z,95.30
2017-08-19T02:07:06.347Z,95.40
2017-08-19T02:09:33.989Z,95.40
2017-08-19T02:12:01.521Z,95.80
2017-08-19T02:14:29.102Z,95.60
2017-08-19T02:16:56.829Z,95.40
2017-08-19T02:19:24.365Z,95.70
2017-08-19T02:21:51.918Z,95.50
2017-08-19T02:24:20.308Z,95.60
2017-08-19T02:26:47.842Z,95.50
2017-08-19T02:29:15.353Z,95.60
2017-08-19T02:31:42.951Z,95.80
2017-08-19T02:34:10.587Z,95.90
2017-08-19T02:36:38.781Z,95.70
2017-08-19T02:39:06.523Z,96.00
2017-08-19T02:41:34.021Z,95.90
2017-08-19T02:44:01.595Z,96.10
2017-08-19T02:46:29.303Z,95.80
2017-08-19T02:48:56.847Z,96.20
2017-08-19T02:51:24.421Z,95.80
2017-08-19T02:53:52.628Z,96.00
2017-08-19T02:56:20.194Z,96.00
2017-08-19T02:58:47.876Z,95.90
2017-08-19T03:01:15.650Z,95.90
2017-08-19T03:03:43.155Z,95.70
2017-08-19T03:06:10.736Z,95.10
2017-08-19T03:08:38.510Z,95.20
2017-08-19T03:11:06.095Z,95.30
2017-08-19T03:13:33.685Z,95.30
2017-08-19T03:16:02.194Z,95.40
2017-08-19T03:18:29.775Z,95.50
2017-08-19T03:20:57.346Z,95.70
2017-08-19T03:23:25.111Z,96.00
2017-08-19T03:25:52.674Z,96.10
2017-08-19T03:28:21.374Z,96.30
2017-08-19T03:30:48.941Z,96.30
2017-08-19T03:33:16.526Z,96.50
2017-08-19T03:35:44.079Z,96.60
2017-08-19T03:38:11.806Z,96.80
2017-08-19T03:40:39.411Z,96.60
2017-08-19T03:43:06.979Z,96.60
2017-08-19T03:45:34.526Z,96.60
2017-08-19T03:48:02.109Z,96.60
2017-08-19T03:50:29.641Z,96.70
2017-08-19T03:52:57.205Z,96.60
2017-08-19T03:55:24.764Z,96.90
2017-08-19T03:57:52.349Z,96.90
2017-08-19T04:00:20.093Z,97.00
2017-08-19T04:02:48.390Z,96.90
2017-08-19T04:05:15.973Z,97.10
2017-08-19T04:07:43.719Z,97.10
2017-08-19T04:10:13.292Z,96.90
2017-08-19T04:12:40.874Z,96.90
2017-08-19T04:15:08.556Z,96.70
2017-08-19T04:17:36.112Z,96.50
2017-08-19T04:20:03.629Z,96.30
2017-08-19T04:22:31.223Z,95.80
2017-08-19T04:24:58.757Z,95.60
2017-08-19T04:27:26.310Z,95.60
2017-08-19T04:29:53.863Z,95.20
2017-08-19T04:32:21.925Z,95.30
2017-08-19T04:34:49.477Z,95.00
2017-08-19T04:37:17.006Z,95.30
2017-08-19T04:39:44.562Z,95.00
2017-08-19T04:42:12.124Z,95.10
2017-08-19T04:44:39.696Z,95.10
2017-08-19T04:47:07.258Z,94.90
2017-08-19T04:49:35.485Z,94.80
2017-08-19T04:52:03.018Z,94.50
2017-08-19T04:54:31.239Z,94.70
2017-08-19T04:56:58.826Z,94.00
2017-08-19T04:59:26.447Z,94.10
2017-08-19T05:01:54.054Z,94.30
2017-08-19T05:04:21.626Z,93.90
2017-08-19T05:06:49.792Z,93.80
2017-08-19T05:09:17.314Z,93.70
2017-08-19T05:11:44.907Z,93.10
2017-08-19T05:14:12.492Z,93.10
2017-08-19T05:16:40.053Z,93.50
2017-08-19T05:19:07.609Z,93.30
2017-08-19T05:21:35.146Z,93.30
2017-08-19T05:24:03.066Z,93.40
2017-08-19T05:26:30.587Z,93.60
2017-08-19T05:28:59.159Z,93.60
2017-08-19T05:31:26.696Z,93.20
2017-08-19T05:33:54.273Z,93.20
2017-08-19T05:36:22.050Z,92.80
2017-08-19T05:38:49.633Z,92.70
2017-08-19T05:41:17.218Z,92.60
2017-08-19T05:43:44.846Z,92.00
2017-08-19T05:46:13.114Z,91.80
2017-08-19T05:48:40.854Z,91.60
2017-08-19T05:51:08.471Z,92.00
2017-08-19T05:53:36.041Z,91.70
2017-08-19T05:56:03.604Z,91.20
2017-08-19T05:58:31.417Z,91.00
2017-08-19T06:00:59.057Z,91.50
2017-08-19T06:03:27.350Z,91.20
2017-08-19T06:05:54.945Z,91.10
2017-08-19T06:08:22.582Z,91.00
2017-08-19T06:10:50.142Z,90.80
2017-08-19T06:13:18.237Z,91.60
2017-08-19T06:15:46.605Z,90.90
2017-08-19T06:18:14.159Z,90.90
2017-08-19T06:20:41.766Z,90.80
2017-08-19T06:23:10.489Z,90.70
2017-08-19T06:25:38.053Z,90.50
2017-08-19T06:28:05.925Z,90.00
2017-08-19T06:30:39.588Z,89.10
2017-08-19T06:33:07.223Z,89.80
2017-08-19T06:35:34.747Z,90.10
2017-08-19T06:38:02.385Z,90.60
2017-08-19T06:40:30.172Z,90.50
2017-08-19T06:42:57.705Z,90.70
2017-08-19T06:45:25.360Z,91.20
2017-08-19T06:47:53.794Z,91.00
2017-08-19T06:50:21.382Z,90.40
2017-08-19T06:52:48.973Z,90.20
2017-08-19T06:55:16.614Z,90.00
2017-08-19T06:57:44.923Z,90.10
2017-08-19T07:00:13.270Z,89.50
2017-08-19T07:02:40.922Z,88.50
2017-08-19T07:05:08.555Z,87.20
2017-08-19T07:07:36.258Z,86.80
2017-08-19T07:10:08.376Z,84.90
2017-08-19T07:12:35.953Z,85.10
2017-08-19T07:15:03.502Z,85.50
2017-08-19T07:17:31.179Z,84.10
2017-08-19T07:19:59.050Z,85.30
2017-08-19T07:22:26.593Z,84.70
2017-08-19T07:24:54.511Z,84.00
2017-08-19T07:27:22.150Z,83.70
2017-08-19T07:29:50.038Z,84.10
2017-08-19T07:32:17.878Z,83.50
2017-08-19T07:34:45.488Z,83.00
2017-08-19T07:37:13.191Z,83.50
2017-08-19T07:39:40.914Z,83.80
2017-08-19T07:42:08.454Z,82.80
2017-08-19T07:44:36.196Z,82.50
2017-08-19T07:47:04.704Z,80.50
2017-08-19T07:49:32.308Z,80.30
2017-08-19T07:51:59.900Z,80.70
2017-08-19T07:54:27.512Z,80.30
2017-08-19T07:56:55.122Z,78.90
2017-08-19T07:59:22.823Z,79.50
2017-08-19T08:01:50.637Z,78.70
2017-08-19T08:04:18.385Z,77.10
2017-08-19T08:06:45.980Z,77.60
2017-08-19T08:09:13.747Z,79.10
2017-08-19T08:11:41.339Z,78.80
2017-08-19T08:14:08.994Z,77.40
2017-08-19T08:16:36.790Z,78.50
2017-08-19T08:19:04.349Z,77.90
2017-08-19T08:21:31.939Z,78.00
2017-08-19T08:24:00.359Z,75.70
2017-08-19T08:26:27.881Z,75.20
2017-08-19T08:28:55.457Z,74.70
2017-08-19T08:31:23.153Z,74.50
2017-08-19T08:33:50.760Z,72.40
2017-08-19T08:36:18.978Z,74.20
2017-08-19T08:38:46.519Z,73.60
2017-08-19T08:41:14.055Z,73.20
2017-08-19T08:43:41.595Z,71.60
2017-08-19T08:46:09.326Z,72.00
2017-08-19T08:48:36.867Z,71.50
2017-08-19T08:51:04.440Z,71.90
2017-08-19T08:53:32.984Z,72.70
2017-08-19T08:56:00.592Z,73.20
2017-08-19T08:58:28.738Z,72.90
2017-08-19T09:00:56.356Z,73.70
2017-08-19T09:03:23.906Z,74.00
2017-08-19T09:05:51.549Z,73.70
2017-08-19T09:08:19.184Z,75.60
2017-08-19T09:10:46.804Z,76.00
2017-08-19T09:13:14.560Z,75.40
2017-08-19T09:15:42.269Z,76.10
2017-08-19T09:18:09.892Z,74.30
2017-08-19T09:20:37.507Z,76.20
2017-08-19T09:23:06.030Z,76.10
2017-08-19T09:25:33.625Z,76.50
2017-08-19T09:28:01.245Z,75.20
2017-08-19T09:30:28.923Z,75.10
2017-08-19T09:32:56.562Z,72.50
2017-08-19T09:35:24.185Z,72.30
2017-08-19T09:37:55.736Z,72.00
2017-08-19T09:40:23.334Z,73.50
2017-08-19T09:42:50.942Z,73.10
2017-08-19T09:45:19.519Z,71.40
2017-08-19T09:47:48.020Z,71.40
2017-08-19T09:50:16.827Z,70.20
2017-08-19T09:52:44.474Z,69.80
2017-08-19T09:55:12.102Z,69.30
2017-08-19T09:57:39.659Z,69.00
2017-08-19T10:00:07.435Z,68.40
2017-08-19T10:02:36.017Z,67.50
2017-08-19T10:05:03.620Z,64.80
2017-08-19T10:07:41.899Z,64.90
2017-08-19T10:10:21.066Z,63.40
2017-08-19T10:12:48.704Z,65.10
2017-08-19T10:15:16.963Z,62.00
2017-08-19T10:17:44.582Z,59.60
2017-08-19T10:20:17.075Z,57.00
2017-08-19T10:22:44.616Z,56.60
2017-08-19T10:25:12.203Z,55.50
2017-08-19T10:27:39.845Z,52.70
2017-08-19T10:30:07.479Z,54.40
2017-08-19T10:32:35.091Z,55.70
2017-08-19T10:35:02.726Z,56.00
2017-08-19T10:37:30.318Z,54.80
2017-08-19T10:39:57.891Z,52.80
2017-08-19T10:42:25.539Z,53.30
2017-08-19T10:44:53.097Z,54.10
2017-08-19T10:47:27.960Z,51.20
2017-08-19T10:49:55.560Z,52.30
2017-08-19T10:52:23.147Z,51.90
2017-08-19T10:54:52.136Z,52.30
2017-08-19T10:57:19.838Z,52.00
2017-08-19T10:59:49.622Z,52.00
2017-08-19T11:02:17.274Z,57.10
2017-08-19T11:04:44.911Z,57.10
2017-08-19T11:07:12.563Z,57.10
2017-08-19T11:09:40.263Z,58.50
2017-08-19T11:12:07.852Z,55.00
2017-08-19T11:14:35.521Z,53.70
2017-08-19T11:17:03.169Z,54.90
2017-08-19T11:19:30.805Z,56.70
2017-08-19T11:21:58.502Z,57.40
2017-08-19T11:24:26.240Z,54.80
2017-08-19T11:26:53.883Z,54.70
2017-08-19T11:29:21.598Z,54.40
2017-08-19T11:31:49.414Z,54.30
2017-08-19T11:34:16.977Z,52.90
2017-08-19T11:36:44.627Z,51.80
2017-08-19T11:39:12.606Z,51.10
2017-08-19T11:41:41.139Z,49.40
2017-08-19T11:44:08.784Z,52.00
2017-08-19T11:46:36.602Z,51.90
2017-08-19T11:49:04.298Z,52.50
2017-08-19T11:51:31.894Z,48.70
2017-08-19T11:53:59.589Z,49.30
2017-08-19T11:56:27.270Z,49.90
2017-08-19T11:58:54.863Z,52.00
2017-08-19T12:01:22.502Z,50.70
2017-08-19T12:03:50.675Z,52.50
2017-08-19T12:06:18.370Z,50.40
2017-08-19T12:08:46.048Z,50.80
2017-08-19T12:11:13.635Z,52.80
2017-08-19T12:13:41.279Z,53.90
2017-08-19T12:16:09.010Z,54.10
2017-08-19T12:18:37.776Z,54.40
2017-08-19T12:21:06.306Z,56.30
2017-08-19T12:23:34.150Z,56.40
2017-08-19T12:26:01.751Z,54.90
2017-08-19T12:28:29.386Z,55.30
2017-08-19T12:30:57.051Z,54.90
2017-08-19T12:33:25.628Z,56.30
2017-08-19T12:35:53.303Z,56.40
2017-08-19T12:38:21.762Z,55.10
2017-08-19T12:40:49.416Z,52.90
2017-08-19T12:43:17.008Z,54.20
2017-08-19T12:45:45.833Z,52.50
2017-08-19T12:48:13.438Z,53.50
2017-08-19T12:50:41.844Z,55.10
2017-08-19T12:53:09.552Z,55.10
2017-08-19T12:55:37.119Z,56.00
2017-08-19T12:58:04.828Z,56.00
2017-08-19T13:00:32.823Z,56.90
2017-08-19T13:03:00.510Z,57.20
2017-08-19T13:05:29.066Z,57.80
2017-08-19T13:07:57.645Z,58.70
2017-08-19T13:10:25.272Z,59.10
2017-08-19T13:12:52.894Z,59.20
2017-08-19T13:15:20.668Z,58.20
2017-08-19T13:17:49.053Z,57.60
2017-08-19T13:20:16.673Z,57.10
2017-08-19T13:22:44.726Z,58.90
2017-08-19T13:25:12.308Z,56.20
2017-08-19T13:27:39.893Z,57.70
2017-08-19T13:30:07.522Z,57.40
2017-08-19T13:32:35.518Z,57.60
2017-08-19T13:35:03.082Z,59.50
2017-08-19T13:37:30.764Z,59.60
2017-08-19T13:39:58.406Z,59.70
2017-08-19T13:42:25.966Z,62.70
2017-08-19T13:44:53.628Z,62.10
2017-08-19T13:47:21.239Z,62.80
2017-08-19T13:49:48.821Z,66.30
2017-08-19T13:52:16.452Z,70.60
2017-08-19T13:54:44.090Z,72.60
2017-08-19T13:57:11.726Z,72.20
2017-08-19T13:59:39.449Z,73.60
2017-08-19T14:02:06.993Z,73.00
2017-08-19T14:04:34.575Z,72.40
2017-08-19T14:07:02.404Z,70.00
2017-08-19T14:09:29.989Z,67.10
2017-08-19T14:11:57.561Z,64.20
2017-08-19T14:14:25.123Z,65.80
2017-08-19T14:16:52.650Z,63.90
2017-08-19T14:19:20.277Z,63.50
2017-08-19T14:21:47.957Z,61.90
2017-08-19T14:24:15.506Z,63.10
2017-08-19T14:26:43.154Z,64.30
2017-08-19T14:29:10.770Z,66.00
2017-08-19T14:31:39.494Z,64.00
2017-08-19T14:34:07.052Z,66.00
2017-08-19T14:36:34.847Z,64.40
2017-08-19T14:39:02.434Z,62.90
2017-08-19T14:41:30.040Z,63.10
2017-08-19T14:43:57.647Z,61.90
2017-08-19T14:46:25.259Z,63.10
2017-08-19T14:48:52.915Z,63.10
2017-08-19T14:51:20.688Z,63.60
2017-08-19T14:53:48.250Z,64.70
2017-08-19T14:56:15.790Z,62.70
2017-08-19T14:58:43.465Z,63.40
2017-08-19T15:01:11.067Z,60.70
2017-08-19T15:03:38.606Z,62.60
2017-08-19T15:06:23.335Z,63.90
2017-08-19T15:08:51.813Z,61.60
2017-08-19T15:11:19.459Z,63.20
2017-08-19T15:13:47.035Z,59.30
2017-08-19T15:16:14.599Z,58.20
2017-08-19T15:18:42.287Z,57.70
2017-08-19T15:21:09.885Z,55.70
2017-08-19T15:23:37.488Z,57.00
2017-08-19T15:26:05.082Z,54.30
2017-08-19T15:28:32.715Z,49.60
2017-08-19T15:31:00.231Z,49.10
2017-08-19T15:33:27.824Z,49.70
2017-08-19T15:35:55.425Z,52.20
2017-08-19T15:38:23.042Z,53.40
2017-08-19T15:40:50.600Z,53.60
2017-08-19T15:43:18.179Z,54.10
2017-08-19T15:45:45.726Z,51.90
2017-08-19T15:48:13.283Z,52.30
2017-08-19T15:50:40.866Z,54.10
2017-08-19T15:53:08.417Z,55.70
2017-08-19T15:55:35.979Z,56.90
2017-08-19T15:58:03.534Z,56.80
2017-08-19T16:00:31.099Z,56.50
2017-08-19T16:02:58.670Z,56.30
2017-08-19T16:05:26.266Z,56.50
2017-08-19T16:07:53.843Z,54.90
2017-08-19T16:10:21.407Z,57.10
2017-08-19T16:12:49.008Z,53.90
2017-08-19T16:15:16.598Z,48.70
2017-08-19T16:17:44.169Z,49.40
2017-08-19T16:20:11.936Z,50.80
2017-08-19T16:22:40.335Z,51.40
2017-08-19T16:25:07.901Z,51.20
2017-08-19T16:27:35.526Z,49.80
2017-08-19T16:30:03.091Z,51.90
2017-08-19T16:32:30.644Z,48.80
2017-08-19T16:34:58.238Z,49.40
2017-08-19T16:37:25.765Z,48.80
2017-08-19T16:39:53.301Z,49.10
2017-08-19T16:42:20.923Z,52.30
2017-08-19T16:44:48.590Z,53.10
2017-08-19T16:47:16.362Z,51.40
2017-08-19T16:49:43.932Z,54.10
2017-08-19T16:52:11.497Z,53.20
2017-08-19T16:54:39.042Z,53.00
2017-08-19T16:57:06.600Z,55.70
2017-08-19T16:59:34.172Z,56.80
2017-08-19T17:02:01.699Z,59.10
2017-08-19T17:04:30.490Z,60.20
2017-08-19T17:06:58.046Z,60.30
2017-08-19T17:09:25.656Z,62.00
2017-08-19T17:11:53.246Z,60.90
2017-08-19T17:14:20.780Z,62.80
2017-08-19T17:16:48.351Z,63.00
2017-08-19T17:19:16.074Z,62.40
2017-08-19T17:21:43.594Z,63.00
2017-08-19T17:24:11.166Z,64.40
2017-08-19T17:26:38.890Z,66.60
2017-08-19T17:29:06.476Z,64.40
2017-08-19T17:31:34.035Z,64.00
2017-08-19T17:34:01.634Z,64.00
2017-08-19T17:36:29.186Z,63.80
2017-08-19T17:38:56.747Z,65.30
2017-08-19T17:41:24.348Z,67.20
2017-08-19T17:43:51.901Z,67.60
2017-08-19T17:46:19.415Z,70.20
2017-08-19T17:48:46.999Z,70.30
2017-08-19T17:51:14.546Z,72.00
2017-08-19T17:53:42.106Z,73.30
2017-08-19T17:56:09.720Z,76.60
2017-08-19T17:58:37.220Z,75.10
2017-08-19T18:01:04.775Z,75.40
2017-08-19T18:03:32.345Z,76.40
2017-08-19T18:05:59.913Z,78.00
2017-08-19T18:08:27.472Z,77.20
2017-08-19T18:10:55.152Z,76.40
2017-08-19T18:13:22.706Z,78.80
2017-08-19T18:15:50.388Z,80.90
2017-08-19T18:18:17.981Z,80.40
2017-08-19T18:20:45.572Z,81.30
2017-08-19T18:23:14.283Z,82.20
2017-08-19T18:25:41.862Z,82.70
2017-08-19T18:28:09.413Z,85.20
2017-08-19T18:30:36.962Z,84.40
2017-08-19T18:33:04.578Z,84.10
2017-08-19T18:35:32.126Z,84.80
2017-08-19T18:37:59.642Z,84.50
2017-08-19T18:40:27.322Z,85.80
2017-08-19T18:42:54.897Z,87.60
2017-08-19T18:45:22.473Z,90.40
2017-08-19T18:47:50.283Z,90.90
2017-08-19T18:50:17.829Z,91.20
2017-08-19T18:52:45.397Z,91.80
2017-08-19T18:55:13.014Z,92.10
2017-08-19T18:57:40.595Z,92.10
2017-08-19T19:00:08.146Z,92.40
2017-08-19T19:02:35.733Z,92.40
2017-08-19T19:05:03.312Z,92.20
2017-08-19T19:07:30.862Z,91.60
2017-08-19T19:09:58.402Z,92.10
2017-08-19T19:12:25.951Z,91.80
2017-08-19T19:14:54.755Z,91.80
2017-08-19T19:17:22.583Z,91.80
2017-08-19T19:19:50.091Z,92.00
2017-08-19T19:22:17.836Z,91.80
2017-08-19T19:24:45.397Z,92.00
2017-08-19T19:27:13.426Z,91.60
2017-08-19T19:29:40.951Z,91.70
2017-08-19T19:32:08.606Z,91.50
2017-08-19T19:40:13.952Z,92.30
2017-08-19T19:42:43.270Z,92.40
2017-08-19T19:45:10.852Z,92.30
2017-08-19T19:47:38.458Z,92.30
2017-08-19T19:50:06.695Z,92.30
2017-08-19T19:52:34.229Z,92.50
2017-08-19T19:55:06.267Z,92.20
2017-08-19T19:57:33.974Z,92.40
2017-08-19T20:00:04.903Z,91.90
2017-08-19T20:02:33.602Z,91.70
2017-08-19T20:05:01.277Z,91.90
2017-08-19T20:07:29.191Z,91.30
2017-08-19T20:09:56.940Z,91.30
2017-08-19T20:12:24.775Z,91.50
2017-08-19T20:14:52.358Z,90.40
2017-08-19T20:17:20.072Z,91.20
2017-08-19T20:19:47.875Z,91.20
2017-08-19T20:22:15.541Z,90.90
2017-08-19T20:24:43.178Z,90.70
2017-08-19T20:27:11.660Z,90.60
2017-08-19T20:29:39.979Z,90.00
2017-08-19T20:32:08.190Z,89.20
2017-08-19T20:34:35.759Z,88.40
2017-08-19T20:37:03.389Z,87.10
2017-08-19T20:39:31.103Z,87.40
2017-08-19T20:41:59.533Z,87.90
2017-08-19T20:44:27.215Z,86.80
2017-08-19T20:46:54.817Z,88.50
2017-08-19T20:49:22.414Z,88.70
2017-08-19T20:51:50.016Z,88.40
2017-08-19T20:54:17.551Z,90.60
2017-08-19T20:56:45.053Z,91.10
2017-08-19T20:59:12.671Z,91.70
2017-08-19T21:01:40.238Z,91.80
2017-08-19T21:04:07.813Z,92.20
2017-08-19T21:06:35.385Z,92.60
2017-08-19T21:09:03.009Z,92.70
2017-08-19T21:11:30.600Z,93.00
2017-08-19T21:13:58.238Z,93.10
2017-08-19T21:16:25.779Z,93.40
2017-08-19T21:18:53.303Z,93.70
2017-08-19T21:21:20.944Z,93.90
2017-08-19T21:23:48.510Z,94.10
2017-08-19T21:26:16.062Z,94.00
2017-08-19T21:28:43.703Z,93.80
2017-08-19T21:31:11.264Z,93.90
2017-08-19T21:33:38.816Z,93.90
2017-08-19T21:36:06.410Z,93.80
2017-08-19T21:38:33.986Z,94.00
2017-08-19T21:41:01.573Z,94.00
2017-08-19T21:43:29.182Z,94.10
2017-08-19T21:45:57.480Z,94.20
2017-08-19T21:48:25.054Z,94.30
2017-08-19T21:50:52.661Z,94.40
2017-08-19T21:53:20.211Z,94.60
2017-08-19T21:55:47.790Z,94.70
2017-08-19T21:58:15.403Z,94.70
2017-08-19T22:00:42.973Z,94.60
2017-08-19T22:03:10.533Z,94.50
2017-08-19T22:05:38.074Z,94.20
2017-08-19T22:08:05.644Z,94.10
2017-08-19T22:10:33.192Z,94.20
2017-08-19T22:13:00.826Z,94.30
2017-08-19T22:15:28.379Z,94.40
2017-08-19T22:17:55.950Z,94.60
2017-08-19T22:20:24.266Z,94.50
2017-08-19T22:22:52.587Z,94.20
2017-08-19T22:25:20.106Z,94.40
2017-08-19T22:27:48.449Z,94.60
2017-08-19T22:30:16.000Z,94.50
2017-08-19T22:32:43.542Z,94.50
2017-08-19T22:35:11.122Z,94.10
2017-08-19T22:37:38.681Z,94.20
2017-08-19T22:40:06.238Z,94.30
2017-08-19T22:42:33.885Z,93.90
2017-08-19T22:45:01.449Z,93.80
2017-08-19T22:47:28.999Z,94.10
2017-08-19T22:49:56.615Z,94.10
2017-08-19T22:52:24.218Z,94.10
2017-08-19T22:54:51.774Z,94.10
2017-08-19T22:57:19.361Z,94.20
2017-08-19T22:59:46.942Z,94.10
2017-08-19T23:02:14.482Z,94.10
2017-08-19T23:04:42.098Z,94.00
2017-08-19T23:07:09.632Z,93.80
2017-08-19T23:09:37.205Z,93.60
2017-08-19T23:12:04.796Z,93.40
2017-08-19T23:14:32.351Z,93.50
2017-08-19T23:16:59.918Z,93.60
2017-08-19T23:19:27.521Z,93.90
2017-08-19T23:21:55.057Z,93.70
2017-08-19T23:24:22.622Z,93.60
2017-08-19T23:26:50.188Z,93.70
2017-08-19T23:29:17.735Z,93.60
2017-08-19T23:31:45.250Z,93.50
2017-08-19T23:34:12.809Z,93.70
2017-08-19T23:36:40.391Z,93.60
2017-08-19T23:39:07.870Z,93.70
2017-08-19T23:41:35.458Z,93.90
2017-08-19T23:44:03.010Z,94.00
2017-08-19T23:46:30.554Z,94.00
2017-08-19T23:48:58.098Z,94.30
2017-08-19T23:51:25.689Z,94.40
2017-08-19T23:53:53.187Z,94.60
2017-08-19T23:56:20.790Z,94.60
2017-08-19T23:58:48.357Z,94.70
